createdAt,value
2022-12-12T00:00:52.600Z,10.50
2022-12-12T00:03:19.156Z,10.50
2022-12-12T00:05:45.739Z,10.50
2022-12-12T00:08:12.208Z,10.50
2022-12-12T00:10:38.692Z,10.50
2022-12-12T00:13:05.168Z,10.50
2022-12-12T00:15:31.702Z,10.50
2022-12-12T00:17:58.251Z,10.40
2022-12-12T00:20:24.746Z,10.40
2022-12-12T00:22:51.202Z,10.50
2022-12-12T00:25:17.684Z,10.40
2022-12-12T00:27:44.154Z,10.40
2022-12-12T00:30:10.641Z,10.50
2022-12-12T00:32:37.106Z,10.50
2022-12-12T00:35:03.572Z,10.40
2022-12-12T00:37:30.044Z,10.50
2022-12-12T00:39:56.506Z,10.40
2022-12-12T00:42:22.954Z,10.40
2022-12-12T00:44:49.411Z,10.40
2022-12-12T00:47:15.873Z,10.40
2022-12-12T00:49:42.323Z,10.40
2022-12-12T00:52:08.794Z,10.40
2022-12-12T00:54:35.253Z,10.40
2022-12-12T00:57:01.714Z,10.40
2022-12-12T00:59:28.174Z,10.40
2022-12-12T01:01:54.670Z,10.40
2022-12-12T01:04:21.166Z,10.40
2022-12-12T01:06:47.647Z,10.40
2022-12-12T01:09:14.088Z,10.40
2022-12-12T01:11:40.544Z,10.40
2022-12-12T01:14:06.988Z,10.40
2022-12-12T01:16:33.539Z,10.30
2022-12-12T01:21:43.828Z,10.30
2022-12-12T01:24:10.296Z,10.30
2022-12-12T01:26:36.750Z,10.40
2022-12-12T01:29:03.209Z,10.40
2022-12-12T01:31:29.690Z,10.30
2022-12-12T01:33:56.191Z,10.30
2022-12-12T01:36:22.634Z,10.30
2022-12-12T01:38:49.093Z,10.30
2022-12-12T01:41:15.564Z,10.30
2022-12-12T01:43:42.022Z,10.30
2022-12-12T01:46:08.581Z,10.30
2022-12-12T01:48:35.088Z,10.30
2022-12-12T01:51:01.549Z,10.30
2022-12-12T01:53:28.007Z,10.30
2022-12-12T01:55:54.449Z,10.30
2022-12-12T01:58:20.906Z,10.30
2022-12-12T02:00:47.388Z,10.30
2022-12-12T02:03:13.887Z,10.30
2022-12-12T02:05:40.349Z,10.30
2022-12-12T02:08:06.845Z,10.30
2022-12-12T02:10:33.355Z,10.30
2022-12-12T02:12:59.819Z,10.30
2022-12-12T02:15:26.272Z,10.30
2022-12-12T02:17:52.728Z,10.30
2022-12-12T02:20:19.190Z,10.30
2022-12-12T02:22:45.667Z,10.30
2022-12-12T02:25:12.312Z,10.30
2022-12-12T02:27:38.998Z,10.30
2022-12-12T02:30:05.459Z,10.30
2022-12-12T02:32:31.920Z,10.30
2022-12-12T02:34:58.383Z,10.30
2022-12-12T02:37:24.839Z,10.30
2022-12-12T02:39:51.293Z,10.30
2022-12-12T02:42:17.742Z,10.20
2022-12-12T02:44:44.197Z,10.30
2022-12-12T02:47:10.679Z,10.30
2022-12-12T02:49:37.150Z,10.30
2022-12-12T02:52:03.637Z,10.30
2022-12-12T02:54:30.086Z,10.20
2022-12-12T02:56:56.562Z,10.30
2022-12-12T02:59:23.011Z,10.20
2022-12-12T03:01:49.508Z,10.30
2022-12-12T03:04:15.968Z,10.30
2022-12-12T03:06:42.448Z,10.30
2022-12-12T03:09:08.906Z,10.20
2022-12-12T03:11:35.358Z,10.20
2022-12-12T03:14:01.829Z,10.30
2022-12-12T03:16:28.312Z,10.30
2022-12-12T03:18:56.878Z,10.20
2022-12-12T03:21:23.770Z,10.20
2022-12-12T03:23:50.236Z,10.20
2022-12-12T03:26:16.691Z,10.20
2022-12-12T03:28:43.170Z,10.20
2022-12-12T03:31:09.688Z,10.20
2022-12-12T03:33:36.191Z,10.20
2022-12-12T03:36:02.657Z,10.20
2022-12-12T03:38:29.153Z,10.20
2022-12-12T03:40:55.598Z,10.20
2022-12-12T03:43:22.076Z,10.20
2022-12-12T03:45:48.620Z,10.20
2022-12-12T03:48:15.129Z,10.20
2022-12-12T03:50:41.572Z,10.20
2022-12-12T03:53:08.054Z,10.20
2022-12-12T03:55:34.513Z,10.10
2022-12-12T03:58:00.980Z,10.20
2022-12-12T04:00:27.431Z,10.10
2022-12-12T04:02:53.899Z,10.20
2022-12-12T04:05:20.357Z,10.10
2022-12-12T04:07:46.859Z,10.20
2022-12-12T04:10:13.316Z,10.10
2022-12-12T04:12:39.768Z,10.10
2022-12-12T04:15:06.233Z,10.10
2022-12-12T04:17:32.702Z,10.10
2022-12-12T04:19:59.202Z,10.10
2022-12-12T04:22:27.318Z,10.10
2022-12-12T04:24:54.058Z,10.10
2022-12-12T04:27:20.521Z,10.10
2022-12-12T04:29:47.007Z,10.10
2022-12-12T04:32:13.474Z,10.20
2022-12-12T04:34:39.924Z,10.10
2022-12-12T04:37:06.391Z,10.10
2022-12-12T04:39:32.854Z,10.20
2022-12-12T04:41:59.311Z,10.10
2022-12-12T04:44:25.764Z,10.20
2022-12-12T04:46:52.230Z,10.20
2022-12-12T04:49:18.680Z,10.10
2022-12-12T04:51:45.141Z,10.10
2022-12-12T04:54:11.606Z,10.20
2022-12-12T04:56:38.064Z,10.10
2022-12-12T04:59:04.508Z,10.10
2022-12-12T05:01:30.993Z,10.20
2022-12-12T05:03:57.483Z,10.10
2022-12-12T05:06:23.930Z,10.10
2022-12-12T05:08:50.404Z,10.10
2022-12-12T05:11:16.868Z,10.10
2022-12-12T05:13:43.338Z,10.10
2022-12-12T05:16:09.807Z,10.10
2022-12-12T05:18:36.276Z,10.10
2022-12-12T05:21:02.757Z,10.10
2022-12-12T05:23:34.437Z,10.10
2022-12-12T05:26:01.308Z,10.10
2022-12-12T05:28:27.760Z,10.10
2022-12-12T05:30:54.310Z,10.10
2022-12-12T05:33:20.837Z,10.10
2022-12-12T05:35:47.304Z,10.00
2022-12-12T05:38:13.769Z,10.10
2022-12-12T05:40:40.218Z,10.10
2022-12-12T05:43:06.680Z,10.00
2022-12-12T05:45:33.146Z,10.10
2022-12-12T05:47:59.605Z,10.10
2022-12-12T05:50:26.070Z,10.10
2022-12-12T05:52:52.524Z,10.10
2022-12-12T05:55:18.966Z,10.10
2022-12-12T05:57:45.425Z,10.10
2022-12-12T06:00:11.878Z,10.00
2022-12-12T06:02:38.373Z,10.10
2022-12-12T06:05:04.871Z,10.00
2022-12-12T06:07:31.322Z,10.00
2022-12-12T06:09:57.783Z,10.10
2022-12-12T06:12:24.238Z,10.10
2022-12-12T06:14:50.726Z,10.00
2022-12-12T06:17:17.187Z,10.10
2022-12-12T06:19:43.680Z,10.00
2022-12-12T06:22:10.119Z,10.10
2022-12-12T06:24:36.569Z,10.00
2022-12-12T06:27:03.028Z,10.00
2022-12-12T06:29:29.484Z,10.00
2022-12-12T06:31:56.016Z,10.00
2022-12-12T06:34:22.480Z,10.00
2022-12-12T06:36:48.950Z,10.00
2022-12-12T06:39:15.415Z,10.00
2022-12-12T06:41:41.936Z,10.00
2022-12-12T06:44:08.410Z,10.00
2022-12-12T06:46:34.922Z,10.00
2022-12-12T06:49:01.469Z,10.00
2022-12-12T06:51:27.942Z,10.00
2022-12-12T06:53:54.383Z,10.00
2022-12-12T06:56:20.850Z,10.00
2022-12-12T06:58:47.302Z,10.00
2022-12-12T07:01:13.839Z,10.00
2022-12-12T07:03:40.359Z,10.00
2022-12-12T07:06:06.838Z,10.00
2022-12-12T07:08:33.299Z,10.00
2022-12-12T07:10:59.764Z,10.00
2022-12-12T07:13:26.234Z,10.00
2022-12-12T07:15:52.757Z,10.00
2022-12-12T07:18:19.232Z,10.00
2022-12-12T07:20:45.704Z,10.00
2022-12-12T07:23:12.167Z,10.00
2022-12-12T07:25:38.632Z,10.00
2022-12-12T07:28:05.090Z,10.00
2022-12-12T07:30:31.577Z,10.00
2022-12-12T07:32:58.043Z,10.00
2022-12-12T07:35:24.542Z,10.00
2022-12-12T07:37:51.004Z,10.00
2022-12-12T07:40:17.498Z,10.00
2022-12-12T07:42:43.947Z,10.00
2022-12-12T07:45:13.769Z,10.00
2022-12-12T07:47:44.438Z,10.00
2022-12-12T07:50:10.916Z,10.00
2022-12-12T07:52:37.358Z,10.00
2022-12-12T07:55:03.817Z,10.00
2022-12-12T07:57:30.283Z,10.00
2022-12-12T07:59:56.745Z,10.00
2022-12-12T08:02:23.231Z,10.00
2022-12-12T08:04:49.749Z,10.00
2022-12-12T08:07:16.288Z,10.00
2022-12-12T08:09:42.747Z,10.00
2022-12-12T08:12:09.221Z,10.00
2022-12-12T08:14:35.683Z,10.00
2022-12-12T08:17:02.151Z,10.00
2022-12-12T08:19:28.610Z,10.00
2022-12-12T08:21:55.081Z,10.00
2022-12-12T08:24:21.549Z,10.00
2022-12-12T08:26:48.006Z,10.00
2022-12-12T08:29:14.477Z,10.00
2022-12-12T08:31:40.958Z,9.90
2022-12-12T08:34:07.431Z,10.00
2022-12-12T08:36:33.879Z,10.00
2022-12-12T08:39:00.354Z,10.00
2022-12-12T08:41:26.822Z,10.00
2022-12-12T08:43:53.279Z,10.00
2022-12-12T08:46:19.829Z,9.90
2022-12-12T08:48:46.346Z,10.00
2022-12-12T08:51:12.810Z,9.90
2022-12-12T08:53:39.275Z,9.90
2022-12-12T08:56:05.733Z,9.90
2022-12-12T08:58:32.186Z,9.90
2022-12-12T09:00:58.642Z,9.90
2022-12-12T09:03:29.439Z,9.90
2022-12-12T09:05:56.333Z,9.90
2022-12-12T09:08:22.873Z,9.90
2022-12-12T09:10:49.395Z,9.90
2022-12-12T09:13:15.857Z,9.90
2022-12-12T09:15:42.337Z,10.00
2022-12-12T09:18:08.796Z,9.90
2022-12-12T09:20:35.254Z,9.90
2022-12-12T09:23:01.726Z,10.00
2022-12-12T09:25:28.200Z,9.90
2022-12-12T09:27:54.665Z,10.00
2022-12-12T09:30:21.125Z,9.90
2022-12-12T09:32:47.607Z,9.90
2022-12-12T09:35:14.319Z,9.90
2022-12-12T09:37:40.963Z,9.90
2022-12-12T09:40:07.427Z,9.90
2022-12-12T09:42:33.900Z,9.90
2022-12-12T09:45:00.368Z,10.00
2022-12-12T09:47:26.842Z,9.90
2022-12-12T09:49:53.307Z,9.90
2022-12-12T09:52:19.769Z,9.90
2022-12-12T09:54:46.231Z,9.90
2022-12-12T09:57:12.693Z,9.90
2022-12-12T09:59:39.171Z,9.90
2022-12-12T10:02:05.742Z,9.90
2022-12-12T10:04:32.268Z,9.90
2022-12-12T10:06:58.744Z,9.90
2022-12-12T10:09:25.204Z,10.00
2022-12-12T10:11:51.681Z,9.90
2022-12-12T10:14:18.135Z,9.90
2022-12-12T10:16:44.621Z,9.90
2022-12-12T10:19:11.098Z,9.90
2022-12-12T10:21:37.565Z,9.90
2022-12-12T10:24:04.031Z,9.90
2022-12-12T10:26:30.508Z,9.90
2022-12-12T10:28:56.954Z,9.90
2022-12-12T10:31:23.455Z,9.90
2022-12-12T10:33:49.938Z,10.00
2022-12-12T10:36:16.407Z,9.90
2022-12-12T10:38:42.869Z,9.90
2022-12-12T10:41:09.338Z,9.90
2022-12-12T10:43:35.813Z,9.90
2022-12-12T10:46:02.409Z,9.90
2022-12-12T10:48:28.975Z,9.90
2022-12-12T10:50:55.458Z,9.90
2022-12-12T10:53:21.927Z,9.90
2022-12-12T10:55:48.416Z,9.90
2022-12-12T10:58:14.862Z,9.90
2022-12-12T11:00:41.444Z,9.90
2022-12-12T11:03:08.163Z,9.90
2022-12-12T11:05:34.674Z,9.90
2022-12-12T11:08:01.191Z,9.90
2022-12-12T11:10:33.453Z,9.90
2022-12-12T11:13:00.649Z,9.90
2022-12-12T11:15:27.108Z,9.90
2022-12-12T11:17:53.564Z,9.90
2022-12-12T11:20:20.037Z,9.90
2022-12-12T11:22:46.501Z,9.90
2022-12-12T11:25:13.096Z,9.90
2022-12-12T11:27:39.743Z,9.90
2022-12-12T11:30:06.196Z,9.90
2022-12-12T11:32:32.671Z,9.90
2022-12-12T11:34:59.147Z,9.80
2022-12-12T11:37:25.635Z,9.90
2022-12-12T11:39:52.087Z,9.90
2022-12-12T11:42:18.548Z,9.90
2022-12-12T11:44:45.049Z,9.90
2022-12-12T11:47:11.536Z,9.90
2022-12-12T11:49:38.037Z,9.90
2022-12-12T11:52:04.541Z,10.00
2022-12-12T11:54:30.994Z,9.90
2022-12-12T11:56:57.442Z,10.00
2022-12-12T11:59:23.889Z,9.90
2022-12-12T12:01:50.347Z,10.00
2022-12-12T12:04:16.844Z,10.00
2022-12-12T12:06:43.389Z,10.00
2022-12-12T12:09:09.841Z,10.00
2022-12-12T12:11:36.303Z,10.00
2022-12-12T12:14:02.762Z,10.00
2022-12-12T12:16:29.283Z,10.00
2022-12-12T12:18:55.783Z,10.00
2022-12-12T12:21:22.226Z,10.00
2022-12-12T12:23:50.544Z,10.00
2022-12-12T12:26:17.184Z,10.00
2022-12-12T12:28:43.666Z,10.00
2022-12-12T12:31:10.186Z,10.00
2022-12-12T12:33:36.699Z,10.00
2022-12-12T12:36:03.171Z,10.00
2022-12-12T12:38:29.636Z,10.10
2022-12-12T12:40:56.099Z,10.00
2022-12-12T12:43:22.561Z,10.00
2022-12-12T12:45:49.061Z,10.00
2022-12-12T12:48:15.547Z,10.00
2022-12-12T12:50:42.007Z,10.00
2022-12-12T12:53:08.514Z,10.00
2022-12-12T12:55:34.982Z,10.00
2022-12-12T12:58:01.484Z,10.00
2022-12-12T13:00:27.941Z,10.00
2022-12-12T13:02:54.478Z,10.00
2022-12-12T13:05:20.986Z,10.00
2022-12-12T13:07:47.472Z,10.00
2022-12-12T13:10:14.145Z,10.00
2022-12-12T13:12:40.773Z,10.00
2022-12-12T13:15:07.225Z,10.00
2022-12-12T13:17:33.676Z,10.00
2022-12-12T13:20:00.154Z,10.00
2022-12-12T13:22:26.606Z,10.00
2022-12-12T13:24:58.113Z,10.00
2022-12-12T13:27:26.376Z,10.00
2022-12-12T13:29:52.828Z,10.00
2022-12-12T13:32:19.332Z,10.00
2022-12-12T13:34:45.791Z,10.00
2022-12-12T13:37:12.242Z,10.00
2022-12-12T13:39:38.694Z,10.00
2022-12-12T13:42:05.149Z,10.00
2022-12-12T13:44:31.623Z,10.00
2022-12-12T13:46:58.091Z,10.00
2022-12-12T13:49:24.564Z,10.00
2022-12-12T13:51:51.028Z,10.00
2022-12-12T13:54:17.506Z,10.00
2022-12-12T13:56:43.990Z,10.00
2022-12-12T13:59:10.471Z,10.00
2022-12-12T14:01:37.006Z,10.00
2022-12-12T14:04:03.528Z,10.00
2022-12-12T14:06:29.987Z,10.00
2022-12-12T14:08:56.437Z,10.00
2022-12-12T14:11:22.905Z,10.00
2022-12-12T14:13:49.360Z,10.00
2022-12-12T14:16:15.914Z,10.00
2022-12-12T14:18:42.432Z,10.00
2022-12-12T14:21:08.889Z,10.00
2022-12-12T14:23:35.343Z,10.00
2022-12-12T14:26:01.810Z,10.00
2022-12-12T14:28:28.262Z,10.00
2022-12-12T14:30:54.746Z,10.00
2022-12-12T14:33:21.241Z,10.00
2022-12-12T14:35:47.930Z,10.00
2022-12-12T14:38:14.432Z,10.00
2022-12-12T14:40:40.884Z,10.00
2022-12-12T14:43:19.678Z,10.00
2022-12-12T14:45:48.794Z,10.00
2022-12-12T14:48:15.255Z,10.00
2022-12-12T14:50:41.709Z,10.00
2022-12-12T14:53:08.190Z,9.90
2022-12-12T14:55:34.651Z,10.00
2022-12-12T14:58:01.125Z,10.00
2022-12-12T15:00:27.581Z,10.00
2022-12-12T15:02:54.166Z,9.90
2022-12-12T15:05:20.704Z,10.00
2022-12-12T15:07:47.220Z,9.90
2022-12-12T15:10:13.885Z,9.90
2022-12-12T15:12:40.458Z,10.00
2022-12-12T15:15:06.944Z,9.90
2022-12-12T15:17:33.396Z,10.00
2022-12-12T15:19:59.863Z,10.00
2022-12-12T15:22:26.332Z,9.90
2022-12-12T15:24:52.782Z,10.00
2022-12-12T15:27:19.239Z,10.00
2022-12-12T15:29:45.683Z,10.00
2022-12-12T15:32:12.293Z,10.00
2022-12-12T15:34:38.843Z,10.00
2022-12-12T15:37:05.295Z,10.00
2022-12-12T15:39:31.757Z,10.00
2022-12-12T15:41:58.222Z,9.90
2022-12-12T15:44:24.672Z,9.90
2022-12-12T15:46:51.216Z,9.90
2022-12-12T15:49:17.720Z,9.90
2022-12-12T15:51:44.194Z,9.90
2022-12-12T15:54:10.653Z,9.90
2022-12-12T15:56:37.130Z,9.90
2022-12-12T15:59:03.566Z,9.90
2022-12-12T16:01:30.068Z,9.90
2022-12-12T16:03:56.577Z,9.90
2022-12-12T16:06:23.055Z,9.90
2022-12-12T16:08:49.527Z,9.90
2022-12-12T16:11:15.992Z,9.90
2022-12-12T16:13:42.463Z,9.90
2022-12-12T16:16:08.967Z,9.90
2022-12-12T16:18:35.763Z,9.90
2022-12-12T16:21:02.234Z,9.90
2022-12-12T16:23:28.718Z,9.90
2022-12-12T16:25:55.186Z,9.90
2022-12-12T16:28:25.287Z,9.90
2022-12-12T16:30:52.397Z,9.90
2022-12-12T16:33:18.874Z,9.90
2022-12-12T16:35:45.333Z,9.90
2022-12-12T16:38:11.780Z,9.90
2022-12-12T16:40:38.249Z,9.90
2022-12-12T16:43:10.780Z,9.90
2022-12-12T16:45:37.574Z,9.80
2022-12-12T16:48:04.080Z,9.80
2022-12-12T16:50:30.521Z,9.80
2022-12-12T16:52:56.987Z,9.80
2022-12-12T16:55:23.463Z,9.90
2022-12-12T16:57:49.933Z,9.80
2022-12-12T17:00:16.906Z,9.80
2022-12-12T17:02:43.684Z,9.80
2022-12-12T17:05:10.161Z,9.80
2022-12-12T17:07:36.607Z,9.80
2022-12-12T17:10:03.065Z,9.80
2022-12-12T17:12:29.520Z,9.80
2022-12-12T17:14:55.997Z,9.80
2022-12-12T17:17:22.464Z,9.80
2022-12-12T17:19:48.937Z,9.80
2022-12-12T17:22:15.394Z,9.80
2022-12-12T17:24:41.859Z,9.80
2022-12-12T17:27:08.336Z,9.80
2022-12-12T17:29:34.789Z,9.80
2022-12-12T17:32:01.284Z,9.80
2022-12-12T17:34:27.775Z,9.90
2022-12-12T17:36:54.217Z,9.90
2022-12-12T17:39:20.651Z,9.90
2022-12-12T17:41:47.124Z,9.90
2022-12-12T17:44:13.571Z,9.90
2022-12-12T17:46:40.023Z,9.80
2022-12-12T17:49:06.473Z,9.80
2022-12-12T17:51:32.930Z,9.80
2022-12-12T17:53:59.393Z,9.80
2022-12-12T17:56:25.857Z,9.80
2022-12-12T17:58:52.302Z,9.80
2022-12-12T18:01:18.835Z,9.80
2022-12-12T18:03:45.584Z,9.80
2022-12-12T18:06:12.164Z,9.80
2022-12-12T18:08:38.623Z,9.80
2022-12-12T18:11:05.099Z,9.80
2022-12-12T18:13:31.564Z,9.80
2022-12-12T18:15:58.052Z,9.80
2022-12-12T18:18:24.519Z,9.80
2022-12-12T18:20:50.977Z,9.80
2022-12-12T18:23:17.438Z,9.80
2022-12-12T18:25:43.891Z,9.80
2022-12-12T18:28:10.354Z,9.80
2022-12-12T18:30:36.808Z,9.70
2022-12-12T18:33:03.433Z,9.70
2022-12-12T18:35:29.921Z,9.80
2022-12-12T18:37:56.383Z,9.70
2022-12-12T18:40:22.894Z,9.70
2022-12-12T18:42:49.358Z,9.70
2022-12-12T18:45:15.821Z,9.70
2022-12-12T18:47:42.289Z,9.70
2022-12-12T18:50:08.746Z,9.70
2022-12-12T18:52:35.221Z,9.70
2022-12-12T18:55:01.689Z,9.70
2022-12-12T18:57:28.169Z,9.70
2022-12-12T18:59:54.637Z,9.70
2022-12-12T19:02:21.144Z,9.60
2022-12-12T19:04:47.644Z,9.70
2022-12-12T19:07:14.128Z,9.70
2022-12-12T19:09:40.573Z,9.70
2022-12-12T19:12:07.054Z,9.70
2022-12-12T19:14:59.777Z,9.70
2022-12-12T19:17:25.857Z,9.70
2022-12-12T19:19:52.853Z,9.60
2022-12-12T19:22:43.785Z,9.60
2022-12-12T19:25:05.766Z,9.60
2022-12-12T19:27:32.226Z,9.60
2022-12-12T19:29:58.686Z,9.60
2022-12-12T19:32:25.159Z,9.60
2022-12-12T19:34:51.617Z,9.60
2022-12-12T19:37:18.085Z,9.60
2022-12-12T19:39:44.533Z,9.60
2022-12-12T19:42:10.988Z,9.60
2022-12-12T19:44:43.061Z,9.60
2022-12-12T19:47:09.928Z,9.60
2022-12-12T19:49:36.395Z,9.60
2022-12-12T19:52:02.866Z,9.50
2022-12-12T19:54:29.329Z,9.60
2022-12-12T19:56:55.790Z,9.60
2022-12-12T19:59:22.262Z,9.60
2022-12-12T20:01:48.751Z,9.60
2022-12-12T20:04:15.256Z,9.60
2022-12-12T20:06:41.742Z,9.60
2022-12-12T20:09:08.201Z,9.60
2022-12-12T20:11:34.690Z,9.60
2022-12-12T20:14:01.134Z,9.60
2022-12-12T20:16:27.591Z,9.60
2022-12-12T20:18:54.056Z,9.60
2022-12-12T20:21:43.632Z,9.60
2022-12-12T20:24:06.952Z,9.60
2022-12-12T20:26:33.416Z,9.60
2022-12-12T20:28:59.880Z,9.60
2022-12-12T20:31:26.507Z,9.60
2022-12-12T20:33:53.040Z,9.60
2022-12-12T20:36:19.528Z,9.50
2022-12-12T20:38:45.985Z,9.60
2022-12-12T20:41:12.450Z,9.60
2022-12-12T20:43:38.915Z,9.50
2022-12-12T20:46:05.437Z,9.50
2022-12-12T20:48:32.005Z,9.60
2022-12-12T20:50:58.470Z,9.50
2022-12-12T20:53:24.942Z,9.50
2022-12-12T20:55:51.416Z,9.50
2022-12-12T20:58:17.874Z,9.50
2022-12-12T21:00:44.367Z,9.50
2022-12-12T21:03:10.928Z,9.50
2022-12-12T21:05:37.415Z,9.50
2022-12-12T21:08:04.033Z,9.50
2022-12-12T21:10:30.591Z,9.50
2022-12-12T21:12:57.057Z,9.50
2022-12-12T21:15:23.497Z,9.50
2022-12-12T21:17:49.951Z,9.50
2022-12-12T21:20:16.419Z,9.50
2022-12-12T21:22:42.877Z,9.50
2022-12-12T21:25:09.329Z,9.50
2022-12-12T21:27:35.786Z,9.40
2022-12-12T21:30:02.248Z,9.50
2022-12-12T21:32:28.719Z,9.40
2022-12-12T21:34:55.173Z,9.50
2022-12-12T21:37:21.665Z,9.50
2022-12-12T21:39:48.118Z,9.40
2022-12-12T21:42:14.576Z,9.50
2022-12-12T21:44:45.497Z,9.50
2022-12-12T21:47:12.357Z,9.50
2022-12-12T21:49:38.852Z,9.50
2022-12-12T21:52:05.309Z,9.50
2022-12-12T21:54:31.777Z,9.50
2022-12-12T21:56:58.231Z,9.50
2022-12-12T21:59:24.690Z,9.40
2022-12-12T22:01:51.201Z,9.50
2022-12-12T22:04:17.700Z,9.50
2022-12-12T22:06:44.149Z,9.40
2022-12-12T22:09:10.622Z,9.40
2022-12-12T22:11:41.392Z,9.50
2022-12-12T22:14:16.184Z,9.40
2022-12-12T22:16:42.647Z,9.40
2022-12-12T22:19:09.109Z,9.40
2022-12-12T22:21:35.589Z,9.40
2022-12-12T22:24:02.061Z,9.40
2022-12-12T22:26:28.531Z,9.40
2022-12-12T22:28:55.012Z,9.40
2022-12-12T22:31:21.510Z,9.50
2022-12-12T22:33:48.102Z,9.40
2022-12-12T22:36:14.577Z,9.40
2022-12-12T22:38:41.097Z,9.40
2022-12-12T22:41:07.554Z,9.40
2022-12-12T22:43:34.005Z,9.40
2022-12-12T22:46:00.470Z,9.40
2022-12-12T22:48:26.911Z,9.40
2022-12-12T22:50:53.378Z,9.40
2022-12-12T22:53:19.843Z,9.40
2022-12-12T22:55:46.290Z,9.40
2022-12-12T22:58:12.754Z,9.40
2022-12-12T23:00:39.219Z,9.40
2022-12-12T23:03:05.686Z,9.40
2022-12-12T23:05:32.189Z,9.40
2022-12-12T23:07:58.756Z,9.40
2022-12-12T23:10:25.271Z,9.40
2022-12-12T23:12:51.722Z,9.40
2022-12-12T23:15:18.174Z,9.40
2022-12-12T23:17:44.626Z,9.40
2022-12-12T23:20:11.088Z,9.40
2022-12-12T23:22:37.550Z,9.40
2022-12-12T23:25:04.033Z,9.40
2022-12-12T23:27:30.491Z,9.40
2022-12-12T23:29:56.945Z,9.40
2022-12-12T23:32:23.402Z,9.40
2022-12-12T23:34:49.870Z,9.40
2022-12-12T23:37:16.329Z,9.40
2022-12-12T23:39:42.780Z,9.40
2022-12-12T23:42:09.224Z,9.40
2022-12-12T23:44:35.691Z,9.40
2022-12-12T23:47:02.169Z,9.40
2022-12-12T23:49:28.634Z,9.40
2022-12-12T23:51:55.086Z,9.40
2022-12-12T23:54:21.544Z,9.40
2022-12-12T23:56:47.993Z,9.40
2022-12-12T23:59:17.902Z,9.40
